KCCY/CCY METAR and TAF weather

Enter ICAO airport designator
Station Type Date Time Source
KCCY METAR 2019/04/21 22:55 UTC NOAA

KCCY 212255Z AUTO 19014G20KT 10SM CLR 26/09 A2978 RMK AO2


Station Type Date Time Source
KCCY Decoded METAR 2019/04/21 22:55 UTC NOAA

Charles City, IA, United States (KCCY) 43-04N 092-37W
Apr 21, 2019 - 06:55 PM EDT / 2019.04.21 2255 UTC
Wind: from the S (190 degrees) at 16 MPH (14 KT) gusting to 23 MPH (20 KT):0
Visibility: 10 mile(s):0
Sky conditions: clear
Temperature: 78 F (26 C)
Dew Point: 48 F (9 C)
Relative Humidity: 34%
Pressure (altimeter): 29.78 in. Hg (1008 hPa)
ob: KCCY 212255Z AUTO 19014G20KT 10SM CLR 26/09 A2978 RMK AO2
cycle: 23

Station Type Date Time Source
KCCY TAF UTC NOAA

Error!

Example: see airport list